createdAt,value
2023-05-11T00:00:16.567Z,101120.03
2023-05-11T00:02:47.032Z,101110.63
2023-05-11T00:05:15.729Z,101101.00
2023-05-11T00:07:44.008Z,101101.84
2023-05-11T00:10:12.866Z,101104.69
2023-05-11T00:12:42.325Z,101100.84
2023-05-11T00:15:11.527Z,101094.75
2023-05-11T00:17:39.929Z,101089.22
2023-05-11T00:20:11.089Z,101091.75
2023-05-11T00:22:39.487Z,101090.91
2023-05-11T00:25:08.739Z,101081.81
2023-05-11T00:27:37.084Z,101088.03
2023-05-11T00:30:06.091Z,101084.66
2023-05-11T00:32:35.654Z,101087.19
2023-05-11T00:35:04.091Z,101081.97
2023-05-11T00:37:35.144Z,101082.13
2023-05-11T00:40:04.276Z,101088.50
2023-05-11T00:42:32.845Z,101089.66
2023-05-11T00:45:01.314Z,101086.75
2023-05-11T00:47:30.153Z,101086.91
2023-05-11T00:49:59.508Z,101083.50
2023-05-11T00:52:28.281Z,101077.41
2023-05-11T00:54:58.382Z,101078.38
2023-05-11T00:57:26.814Z,101078.00
2023-05-11T00:59:55.400Z,101069.72
2023-05-11T01:02:29.878Z,101066.50
2023-05-11T01:05:08.322Z,101072.19
2023-05-11T01:07:53.153Z,101067.44
2023-05-11T01:10:38.579Z,101067.59
2023-05-11T01:13:24.005Z,101072.59
2023-05-11T01:16:01.291Z,101066.66
2023-05-11T01:18:43.055Z,101063.91
2023-05-11T01:21:22.493Z,101061.00
2023-05-11T01:24:32.479Z,101063.47
2023-05-11T01:27:37.219Z,101063.47
2023-05-11T01:30:34.790Z,101040.63
2023-05-11T01:33:13.456Z,101073.22
2023-05-11T01:35:55.677Z,101077.59
2023-05-11T01:38:38.454Z,101075.44
2023-05-11T01:41:21.660Z,101066.06
2023-05-11T01:44:00.786Z,100990.03
2023-05-11T01:46:42.314Z,101075.59
2023-05-11T01:49:20.668Z,101071.00
2023-05-11T01:51:59.828Z,101061.78
2023-05-11T01:54:38.120Z,101075.75
2023-05-11T01:57:19.207Z,101069.00
2023-05-11T01:59:59.230Z,101073.16
2023-05-11T02:02:40.931Z,101065.66
2023-05-11T02:05:23.765Z,101080.41
2023-05-11T02:08:04.962Z,101073.09
2023-05-11T02:10:42.093Z,101077.91
2023-05-11T02:13:21.421Z,101084.28
2023-05-11T02:16:01.358Z,101090.50
2023-05-11T02:18:45.947Z,101097.41
2023-05-11T02:21:22.397Z,101096.31
2023-05-11T02:24:01.309Z,101097.00
2023-05-11T02:26:37.632Z,101098.88
2023-05-11T02:29:15.688Z,101095.88
2023-05-11T02:31:59.779Z,101094.50
2023-05-11T02:34:46.142Z,101096.22
2023-05-11T02:37:29.192Z,101104.59
2023-05-11T02:40:02.474Z,101104.34
2023-05-11T02:42:38.289Z,101099.66
2023-05-11T02:45:10.326Z,101100.38
2023-05-11T02:47:43.723Z,101096.69
2023-05-11T02:50:19.616Z,101089.78
2023-05-11T02:52:50.801Z,101083.63
2023-05-11T02:55:21.475Z,101069.44
2023-05-11T02:57:50.547Z,101078.59
2023-05-11T03:00:19.568Z,101075.25
2023-05-11T03:02:48.859Z,101050.94
2023-05-11T03:05:24.393Z,101077.56
2023-05-11T03:07:53.874Z,101075.59
2023-05-11T03:10:22.871Z,101073.06
2023-05-11T03:12:51.846Z,101072.22
2023-05-11T03:15:22.123Z,101065.00
2023-05-11T03:17:53.626Z,101048.25
2023-05-11T03:20:24.390Z,101069.53
2023-05-11T03:22:53.983Z,101059.25
2023-05-11T03:25:24.744Z,101056.72
2023-05-11T03:27:56.239Z,101016.88
2023-05-11T03:30:25.448Z,101053.31
2023-05-11T03:32:56.996Z,101049.38
2023-05-11T03:35:28.940Z,101038.66
2023-05-11T03:38:00.886Z,101045.84
2023-05-11T03:40:31.710Z,101044.19
2023-05-11T03:43:04.238Z,101046.19
2023-05-11T03:45:34.373Z,101050.16
2023-05-11T03:48:07.164Z,101054.78
2023-05-11T03:50:39.339Z,101052.25
2023-05-11T03:53:09.147Z,101052.81
2023-05-11T03:55:38.630Z,101054.22
2023-05-11T03:58:08.945Z,101046.06
2023-05-11T04:00:40.767Z,101054.28
2023-05-11T04:03:10.202Z,101043.56
2023-05-11T04:05:42.167Z,101043.28
2023-05-11T04:08:14.653Z,101042.88
2023-05-11T04:10:43.272Z,101044.56
2023-05-11T04:13:11.628Z,101043.00
2023-05-11T04:15:40.042Z,101043.97
2023-05-11T04:18:08.429Z,101027.22
2023-05-11T04:20:36.914Z,101034.00
2023-05-11T04:23:08.426Z,101021.47
2023-05-11T04:25:38.696Z,101016.94
2023-05-11T04:28:07.426Z,101017.91
2023-05-11T04:30:36.557Z,101022.41
2023-05-11T04:33:05.501Z,101016.19
2023-05-11T04:35:34.017Z,101015.34
2023-05-11T04:38:03.758Z,101012.75
2023-05-11T04:40:37.604Z,101005.59
2023-05-11T04:43:06.046Z,101008.97
2023-05-11T04:45:34.370Z,101012.06
2023-05-11T04:48:03.736Z,101011.22
2023-05-11T04:50:32.163Z,101004.75
2023-05-11T04:53:00.877Z,101015.31
2023-05-11T04:55:29.417Z,101007.97
2023-05-11T04:57:59.835Z,101013.75
2023-05-11T05:00:28.317Z,101010.81
2023-05-11T05:02:56.777Z,101020.25
2023-05-11T05:05:26.241Z,101015.34
2023-05-11T05:07:54.656Z,101024.84
2023-05-11T05:10:24.416Z,101016.81
2023-05-11T05:12:52.777Z,101023.44
2023-05-11T05:15:23.400Z,101026.13
2023-05-11T05:17:51.899Z,101023.44
2023-05-11T05:20:20.651Z,101023.03
2023-05-11T05:22:49.216Z,101022.56
2023-05-11T05:25:17.802Z,101024.69
2023-05-11T05:27:46.275Z,101028.50
2023-05-11T05:30:19.969Z,101033.97
2023-05-11T05:32:51.438Z,101028.31
2023-05-11T05:35:19.942Z,101030.69
2023-05-11T05:37:48.389Z,101031.06
2023-05-11T05:40:17.951Z,101036.66
2023-05-11T05:42:49.577Z,101041.78
2023-05-11T05:45:22.051Z,101034.91
2023-05-11T05:47:52.851Z,101029.84
2023-05-11T05:50:22.568Z,101024.16
2023-05-11T05:52:50.895Z,101021.34
2023-05-11T05:55:19.564Z,101018.50
2023-05-11T05:57:50.182Z,101024.50
2023-05-11T06:00:19.489Z,101015.97
2023-05-11T06:02:57.665Z,101018.31
2023-05-11T06:05:28.473Z,101012.28
2023-05-11T06:08:09.007Z,101019.16
2023-05-11T06:10:39.348Z,101011.78
2023-05-11T06:13:09.394Z,101018.63
2023-05-11T06:15:41.173Z,101010.34
2023-05-11T06:18:24.019Z,101008.88
2023-05-11T06:20:52.956Z,100996.44
2023-05-11T06:23:21.330Z,101001.75
2023-05-11T06:25:50.527Z,101003.66
2023-05-11T06:28:19.091Z,101001.94
2023-05-11T06:30:47.936Z,100995.91
2023-05-11T06:33:16.361Z,100996.78
2023-05-11T06:35:46.259Z,100995.13
2023-05-11T06:38:16.212Z,100994.41
2023-05-11T06:40:44.850Z,100988.88
2023-05-11T06:43:13.301Z,100990.78
2023-05-11T06:45:51.563Z,100991.66
2023-05-11T06:48:20.163Z,100997.91
2023-05-11T06:50:50.405Z,100998.91
2023-05-11T06:53:19.127Z,100993.41
2023-05-11T06:55:47.559Z,101000.09
2023-05-11T06:58:17.248Z,101003.31
2023-05-11T07:00:45.807Z,101004.88
2023-05-11T07:03:14.395Z,100995.09
2023-05-11T07:05:42.862Z,100998.06
2023-05-11T07:08:12.797Z,101000.59
2023-05-11T07:10:41.806Z,100987.25
2023-05-11T07:13:10.165Z,100989.53
2023-05-11T07:15:38.601Z,100990.75
2023-05-11T07:18:07.158Z,100992.59
2023-05-11T07:20:36.690Z,100989.53
2023-05-11T07:23:05.061Z,100988.53
2023-05-11T07:25:35.131Z,100985.50
2023-05-11T07:28:03.709Z,100983.22
2023-05-11T07:30:32.153Z,100988.97
2023-05-11T07:33:00.581Z,100988.84
2023-05-11T07:35:29.173Z,100981.47
2023-05-11T07:37:57.605Z,100978.91
2023-05-11T07:40:26.188Z,100979.09
2023-05-11T07:42:56.112Z,100969.22
2023-05-11T07:45:24.528Z,100975.22
2023-05-11T07:47:53.107Z,100966.28
2023-05-11T07:50:23.884Z,100969.09
2023-05-11T07:52:52.975Z,100969.31
2023-05-11T07:55:25.566Z,100957.72
2023-05-11T07:57:57.288Z,100963.00
2023-05-11T08:00:26.178Z,100958.13
2023-05-11T08:02:55.706Z,100961.44
2023-05-11T08:05:24.783Z,100960.59
2023-05-11T08:07:53.153Z,100954.97
2023-05-11T08:10:21.666Z,100952.66
2023-05-11T08:12:50.158Z,100960.88
2023-05-11T08:15:20.295Z,100946.91
2023-05-11T08:17:48.960Z,100953.41
2023-05-11T08:20:17.530Z,100955.66
2023-05-11T08:22:47.054Z,100951.66
2023-05-11T08:25:16.540Z,100943.09
2023-05-11T08:27:45.161Z,100958.75
2023-05-11T08:30:14.309Z,100944.50
2023-05-11T08:35:17.192Z,100939.25
2023-05-11T08:37:45.873Z,100936.13
2023-05-11T08:40:15.145Z,100920.44
2023-05-11T08:42:47.633Z,100929.22
2023-05-11T08:45:18.032Z,100928.94
2023-05-11T08:47:49.274Z,100927.88
2023-05-11T08:50:18.154Z,100931.41
2023-05-11T08:52:46.583Z,100922.16
2023-05-11T08:55:15.071Z,100929.63
2023-05-11T08:57:46.808Z,100918.69
2023-05-11T09:00:16.955Z,100920.75
2023-05-11T09:02:46.017Z,100914.88
2023-05-11T09:05:16.477Z,100922.13
2023-05-11T09:07:48.442Z,100924.84
2023-05-11T09:10:17.552Z,100930.06
2023-05-11T09:12:46.223Z,100927.34
2023-05-11T09:15:15.721Z,100921.72
2023-05-11T09:17:44.132Z,100921.34
2023-05-11T09:20:13.341Z,100910.69
2023-05-11T09:22:48.038Z,100896.09
2023-05-11T09:25:18.392Z,100906.44
2023-05-11T09:27:48.117Z,100906.69
2023-05-11T09:32:54.676Z,100914.28
2023-05-11T09:35:24.408Z,100917.00
2023-05-11T09:38:02.470Z,100913.66
2023-05-11T09:40:34.079Z,100908.22
2023-05-11T09:43:03.765Z,100913.88
2023-05-11T09:45:40.242Z,100907.00
2023-05-11T09:48:14.342Z,100879.41
2023-05-11T09:50:43.007Z,100906.38
2023-05-11T09:53:13.771Z,100888.63
2023-05-11T09:55:53.162Z,100894.34
2023-05-11T09:58:22.167Z,100894.13
2023-05-11T10:00:52.416Z,100886.41
2023-05-11T10:03:21.853Z,100887.25
2023-05-11T10:05:58.577Z,100883.47
2023-05-11T10:08:31.467Z,100874.91
2023-05-11T10:11:00.031Z,100869.28
2023-05-11T10:13:29.136Z,100870.47
2023-05-11T10:16:00.580Z,100875.88
2023-05-11T10:18:29.067Z,100866.94
2023-05-11T10:20:58.960Z,100874.50
2023-05-11T10:23:27.760Z,100872.66
2023-05-11T10:25:58.617Z,100830.22
2023-05-11T10:28:27.084Z,100847.25
2023-05-11T10:30:56.303Z,100846.94
2023-05-11T10:33:25.334Z,100840.56
2023-05-11T10:35:54.535Z,100837.53
2023-05-11T10:38:23.924Z,100837.13
2023-05-11T10:40:53.676Z,100840.28
2023-05-11T10:43:53.425Z,100842.97
2023-05-11T10:46:38.673Z,100825.28
2023-05-11T10:49:23.535Z,100836.31
2023-05-11T10:52:07.462Z,100830.19
2023-05-11T10:54:50.388Z,100830.59
2023-05-11T10:57:37.649Z,100814.06
2023-05-11T11:00:50.257Z,100833.81
2023-05-11T11:03:18.983Z,100829.78
2023-05-11T11:05:48.336Z,100827.09
2023-05-11T11:08:16.801Z,100819.59
2023-05-11T11:10:46.820Z,100817.91
2023-05-11T11:13:16.951Z,100813.03
2023-05-11T11:16:19.104Z,100802.16
2023-05-11T11:18:47.741Z,100809.69
2023-05-11T11:21:42.884Z,100796.13
2023-05-11T11:24:47.364Z,100803.16
2023-05-11T11:27:16.364Z,100786.44
2023-05-11T11:30:18.486Z,100800.22
2023-05-11T11:32:49.334Z,100800.44
2023-05-11T11:35:49.152Z,100786.59
2023-05-11T11:38:20.088Z,100783.66
2023-05-11T11:40:52.990Z,100783.13
2023-05-11T11:43:23.730Z,100779.19
2023-05-11T11:45:53.775Z,100781.56
2023-05-11T11:48:31.232Z,100790.97
2023-05-11T11:51:04.673Z,100755.97
2023-05-11T11:54:00.903Z,100775.97
2023-05-11T11:56:43.809Z,100771.56
2023-05-11T11:59:15.388Z,100767.78
2023-05-11T12:01:46.016Z,100760.53
2023-05-11T12:04:39.647Z,100737.94
2023-05-11T12:07:11.497Z,100759.75
2023-05-11T12:09:42.224Z,100753.41
2023-05-11T12:12:11.964Z,100733.09
2023-05-11T12:14:44.838Z,100741.59
2023-05-11T12:17:16.598Z,100742.63
2023-05-11T12:19:47.153Z,100761.19
2023-05-11T12:22:16.774Z,100740.66
2023-05-11T12:24:45.788Z,100747.63
2023-05-11T12:27:14.848Z,100739.00
2023-05-11T12:29:46.054Z,100736.16
2023-05-11T12:32:15.249Z,100741.88
2023-05-11T12:34:43.734Z,100734.53
2023-05-11T12:37:13.703Z,100734.00
2023-05-11T12:39:42.677Z,100734.69
2023-05-11T12:42:20.181Z,100723.28
2023-05-11T12:44:48.915Z,100723.88
2023-05-11T12:47:17.892Z,100721.50
2023-05-11T12:49:46.578Z,100718.53
2023-05-11T12:52:16.466Z,100707.53
2023-05-11T12:54:51.591Z,100708.19
2023-05-11T12:57:27.599Z,100707.63
2023-05-11T13:00:11.813Z,100700.50
2023-05-11T13:02:50.318Z,100710.78
2023-05-11T13:05:21.004Z,100665.03
2023-05-11T13:07:59.093Z,100677.13
2023-05-11T13:10:28.100Z,100686.97
2023-05-11T13:12:57.221Z,100689.13
2023-05-11T13:15:28.747Z,100679.13
2023-05-11T13:17:59.309Z,100692.91
2023-05-11T13:20:29.812Z,100678.28
2023-05-11T13:23:07.371Z,100685.91
2023-05-11T13:25:36.814Z,100683.06
2023-05-11T13:28:05.667Z,100659.91
2023-05-11T13:30:35.073Z,100674.03
2023-05-11T13:33:04.478Z,100668.94
2023-05-11T13:35:32.894Z,100661.34
2023-05-11T13:38:02.322Z,100666.44
2023-05-11T13:40:32.354Z,100666.34
2023-05-11T13:43:01.423Z,100659.69
2023-05-11T13:45:29.952Z,100655.44
2023-05-11T13:47:58.463Z,100650.47
2023-05-11T13:50:27.530Z,100647.28
2023-05-11T13:52:55.944Z,100641.50
2023-05-11T13:55:24.574Z,100648.50
2023-05-11T13:57:54.549Z,100649.44
2023-05-11T14:00:23.535Z,100640.28
2023-05-11T14:02:53.010Z,100632.16
2023-05-11T14:05:23.631Z,100626.78
2023-05-11T14:07:51.966Z,100583.09
2023-05-11T14:10:21.104Z,100639.97
2023-05-11T14:12:49.501Z,100625.00
2023-05-11T14:15:19.705Z,100626.56
2023-05-11T14:17:48.924Z,100622.66
2023-05-11T14:20:17.698Z,100631.81
2023-05-11T14:22:46.242Z,100624.22
2023-05-11T14:25:14.915Z,100620.06
2023-05-11T14:27:44.036Z,100605.31
2023-05-11T14:30:13.020Z,100610.66
2023-05-11T14:32:42.999Z,100613.28
2023-05-11T14:35:11.830Z,100608.78
2023-05-11T14:37:40.494Z,100607.72
2023-05-11T14:40:09.981Z,100608.69
2023-05-11T14:42:38.580Z,100614.16
2023-05-11T14:45:07.935Z,100591.25
2023-05-11T14:47:37.006Z,100602.84
2023-05-11T14:50:08.135Z,100601.34
2023-05-11T14:52:36.604Z,100596.94
2023-05-11T14:55:05.387Z,100596.56
2023-05-11T14:57:33.843Z,100578.53
2023-05-11T15:00:02.332Z,100581.34
2023-05-11T15:02:30.899Z,100602.06
2023-05-11T15:04:59.361Z,100587.50
2023-05-11T15:07:29.279Z,100589.91
2023-05-11T15:09:57.675Z,100593.88
2023-05-11T15:12:26.062Z,100587.06
2023-05-11T15:14:54.600Z,100582.75
2023-05-11T15:17:23.103Z,100564.59
2023-05-11T15:19:52.033Z,100575.91
2023-05-11T15:22:20.430Z,100569.66
2023-05-11T15:24:50.248Z,100571.34
2023-05-11T15:27:19.151Z,100571.44
2023-05-11T15:29:47.524Z,100570.50
2023-05-11T15:32:17.767Z,100562.09
2023-05-11T15:34:58.579Z,100563.91
2023-05-11T15:37:28.940Z,100544.56
2023-05-11T15:39:58.642Z,100552.41
2023-05-11T15:42:27.102Z,100549.69
2023-05-11T15:44:55.468Z,100546.47
2023-05-11T15:47:24.154Z,100540.41
2023-05-11T15:49:52.808Z,100548.13
2023-05-11T15:52:21.588Z,100544.56
2023-05-11T15:54:50.001Z,100541.19
2023-05-11T15:57:20.033Z,100537.72
2023-05-11T15:59:48.825Z,100547.19
2023-05-11T16:02:18.002Z,100532.47
2023-05-11T16:04:46.450Z,100537.94
2023-05-11T16:07:14.859Z,100538.72
2023-05-11T16:09:43.335Z,100536.13
2023-05-11T16:12:11.774Z,100533.63
2023-05-11T16:14:41.576Z,100538.75
2023-05-11T16:17:10.167Z,100535.75
2023-05-11T16:19:38.829Z,100530.34
2023-05-11T16:22:07.664Z,100537.19
2023-05-11T16:24:36.086Z,100538.97
2023-05-11T16:27:04.685Z,100539.06
2023-05-11T16:29:33.050Z,100545.00
2023-05-11T16:32:03.099Z,100537.28
2023-05-11T16:34:31.950Z,100541.25
2023-05-11T16:37:00.306Z,100537.50
2023-05-11T16:39:28.733Z,100532.34
2023-05-11T16:41:57.246Z,100535.97
2023-05-11T16:44:25.921Z,100533.94
2023-05-11T16:46:54.433Z,100539.00
2023-05-11T16:49:24.691Z,100522.81
2023-05-11T16:51:53.431Z,100532.03
2023-05-11T16:54:21.869Z,100531.47
2023-05-11T16:56:50.363Z,100531.22
2023-05-11T16:59:18.801Z,100529.84
2023-05-11T17:01:47.585Z,100521.44
2023-05-11T17:04:16.672Z,100527.34
2023-05-11T17:06:46.659Z,100530.28
2023-05-11T17:09:15.097Z,100523.56
2023-05-11T17:11:43.542Z,100526.06
2023-05-11T17:14:11.938Z,100521.00
2023-05-11T17:16:40.439Z,100527.72
2023-05-11T17:19:10.276Z,100530.84
2023-05-11T17:21:39.756Z,100528.72
2023-05-11T17:24:09.794Z,100533.78
2023-05-11T17:26:47.095Z,100531.75
2023-05-11T17:29:17.301Z,100533.31
2023-05-11T17:31:48.797Z,100537.97
2023-05-11T17:34:18.044Z,100545.03
2023-05-11T17:36:46.561Z,100542.63
2023-05-11T17:39:17.221Z,100540.41
2023-05-11T17:41:45.752Z,100547.16
2023-05-11T17:44:14.625Z,100547.28
2023-05-11T17:46:43.307Z,100542.75
2023-05-11T17:49:11.752Z,100554.88
2023-05-11T17:51:40.286Z,100556.22
2023-05-11T17:54:08.996Z,100551.44
2023-05-11T17:56:39.509Z,100559.78
2023-05-11T17:59:08.222Z,100554.59
2023-05-11T18:01:37.684Z,100561.72
2023-05-11T18:04:06.532Z,100570.31
2023-05-11T18:06:34.978Z,100576.63
2023-05-11T18:09:05.076Z,100581.44
2023-05-11T18:11:34.891Z,100592.31
2023-05-11T18:14:04.741Z,100592.31
2023-05-11T18:16:34.264Z,100594.25
2023-05-11T18:19:02.921Z,100602.59
2023-05-11T18:21:31.480Z,100608.03
2023-05-11T18:23:59.908Z,100599.44
2023-05-11T18:26:28.440Z,100615.75
2023-05-11T18:28:56.825Z,100615.34
2023-05-11T18:31:28.287Z,100616.81
2023-05-11T18:33:57.070Z,100625.16
2023-05-11T18:36:26.324Z,100632.03
2023-05-11T18:38:54.826Z,100633.09
2023-05-11T18:41:23.317Z,100633.94
2023-05-11T18:43:52.862Z,100648.31
2023-05-11T18:46:21.725Z,100649.38
2023-05-11T18:48:52.961Z,100658.53
2023-05-11T18:51:22.927Z,100656.84
2023-05-11T18:53:52.575Z,100667.91
2023-05-11T18:56:22.442Z,100664.56
2023-05-11T18:58:50.972Z,100671.59
2023-05-11T19:01:19.460Z,100675.13
2023-05-11T19:03:47.856Z,100686.16
2023-05-11T19:06:17.702Z,100687.41
2023-05-11T19:08:46.105Z,100687.41
2023-05-11T19:11:15.753Z,100693.44
2023-05-11T19:13:44.369Z,100698.59
2023-05-11T19:16:12.884Z,100709.38
2023-05-11T19:18:41.335Z,100689.94
2023-05-11T19:21:10.792Z,100714.94
2023-05-11T19:23:40.626Z,100722.59
2023-05-11T19:26:09.191Z,100684.69
2023-05-11T19:28:38.575Z,100732.91
2023-05-11T19:31:07.651Z,100733.59
2023-05-11T19:33:36.245Z,100736.66
2023-05-11T19:36:05.717Z,100737.00
2023-05-11T19:38:35.449Z,100743.16
2023-05-11T19:41:05.342Z,100748.16
2023-05-11T19:43:34.319Z,100743.09
2023-05-11T19:46:04.185Z,100743.84
2023-05-11T19:48:32.783Z,100747.22
2023-05-11T19:51:01.370Z,100742.63
2023-05-11T19:53:29.988Z,100744.44
2023-05-11T19:55:58.472Z,100743.78
2023-05-11T19:58:28.293Z,100747.44
2023-05-11T20:00:56.772Z,100750.78
2023-05-11T20:03:27.969Z,100756.19
2023-05-11T20:05:57.421Z,100761.38
2023-05-11T20:08:25.814Z,100761.06
2023-05-11T20:10:54.469Z,100763.50
2023-05-11T20:13:23.526Z,100767.22
2023-05-11T20:15:53.399Z,100753.44
2023-05-11T20:18:21.881Z,100768.72
2023-05-11T20:20:50.616Z,100767.44
2023-05-11T20:23:19.421Z,100771.09
2023-05-11T20:25:47.815Z,100768.94
2023-05-11T20:28:16.264Z,100775.75
2023-05-11T20:30:44.735Z,100770.91
2023-05-11T20:35:46.954Z,100784.44
2023-05-11T20:38:15.286Z,100792.25
2023-05-11T20:40:43.733Z,100785.53
2023-05-11T20:43:14.376Z,100788.78
2023-05-11T20:45:43.801Z,100791.59
2023-05-11T20:48:12.433Z,100794.66
2023-05-11T20:50:42.375Z,100794.94
2023-05-11T20:53:10.782Z,100787.03
2023-05-11T20:55:39.617Z,100789.25
2023-05-11T20:58:08.059Z,100789.91
2023-05-11T21:00:36.688Z,100786.38
2023-05-11T21:03:05.557Z,100788.41
2023-05-11T21:05:34.118Z,100788.13
2023-05-11T21:08:03.993Z,100783.56
2023-05-11T21:10:32.748Z,100792.50
2023-05-11T21:13:02.036Z,100792.69
2023-05-11T21:15:30.668Z,100781.09
2023-05-11T21:17:59.234Z,100786.47
2023-05-11T21:20:27.651Z,100787.88
2023-05-11T21:22:56.839Z,100783.59
2023-05-11T21:25:26.767Z,100787.66
2023-05-11T21:27:55.186Z,100793.25
2023-05-11T21:30:23.610Z,100791.09
2023-05-11T21:32:52.090Z,100785.22
2023-05-11T21:35:20.598Z,100782.50
2023-05-11T21:37:50.401Z,100777.31
2023-05-11T21:40:19.127Z,100773.75
2023-05-11T21:42:49.195Z,100777.00
2023-05-11T21:45:19.893Z,100780.09
2023-05-11T21:47:48.323Z,100775.22
2023-05-11T21:50:18.331Z,100743.25
2023-05-11T21:52:46.997Z,100778.66
2023-05-11T21:55:15.442Z,100787.28
2023-05-11T21:57:43.797Z,100780.38
2023-05-11T22:00:18.715Z,100780.56
2023-05-11T22:02:47.548Z,100785.63
2023-05-11T22:05:16.579Z,100789.56
2023-05-11T22:07:45.178Z,100786.03
2023-05-11T22:10:13.789Z,100785.72
2023-05-11T22:12:42.253Z,100789.25
2023-05-11T22:15:12.223Z,100779.66
2023-05-11T22:17:42.019Z,100781.00
2023-05-11T22:20:11.237Z,100779.53
2023-05-11T22:22:39.893Z,100792.50
2023-05-11T22:25:09.198Z,100791.81
2023-05-11T22:27:37.706Z,100793.53
2023-05-11T22:30:07.641Z,100797.25
2023-05-11T22:32:36.158Z,100794.75
2023-05-11T22:35:07.227Z,100794.91
2023-05-11T22:37:35.718Z,100793.91
2023-05-11T22:40:05.395Z,100798.47
2023-05-11T22:42:33.882Z,100797.16
2023-05-11T22:45:02.416Z,100788.63
2023-05-11T22:47:30.950Z,100794.25
2023-05-11T22:49:59.341Z,100797.81
2023-05-11T22:52:29.268Z,100803.88
2023-05-11T22:54:59.074Z,100788.25
2023-05-11T22:57:27.886Z,100786.91
2023-05-11T22:59:56.440Z,100790.31
2023-05-11T23:02:25.154Z,100783.75
2023-05-11T23:04:54.467Z,100786.81
2023-05-11T23:07:23.978Z,100783.78
2023-05-11T23:09:53.825Z,100786.16
2023-05-11T23:12:22.378Z,100791.69
2023-05-11T23:14:52.520Z,100792.38
2023-05-11T23:17:21.068Z,100794.56
2023-05-11T23:19:49.633Z,100787.50
2023-05-11T23:22:18.087Z,100789.56
2023-05-11T23:24:46.545Z,100795.28
2023-05-11T23:27:17.284Z,100805.38
2023-05-11T23:29:45.770Z,100798.81
2023-05-11T23:32:14.285Z,100800.00
2023-05-11T23:34:42.751Z,100794.63
2023-05-11T23:37:11.524Z,100790.75
2023-05-11T23:39:40.037Z,100796.13
2023-05-11T23:42:09.315Z,100789.91
2023-05-11T23:44:39.354Z,100797.31
2023-05-11T23:47:07.915Z,100800.16
2023-05-11T23:49:36.402Z,100794.28
2023-05-11T23:52:05.179Z,100806.56
2023-05-11T23:54:33.559Z,100801.50
2023-05-11T23:57:02.172Z,100800.78
2023-05-11T23:59:30.601Z,100799.63
